createdAt,value
2023-03-16T00:00:14.885Z,9.71
2023-03-16T00:02:42.114Z,9.68
2023-03-16T00:05:10.793Z,9.71
2023-03-16T00:07:37.302Z,9.69
2023-03-16T00:10:04.973Z,9.68
2023-03-16T00:12:34.589Z,9.70
2023-03-16T00:15:02.329Z,9.72
2023-03-16T00:17:28.918Z,9.71
2023-03-16T00:19:57.287Z,9.73
2023-03-16T00:22:23.838Z,9.77
2023-03-16T00:24:50.417Z,9.78
2023-03-16T00:27:17.572Z,9.77
2023-03-16T00:29:48.476Z,9.76
2023-03-16T00:32:15.235Z,9.76
2023-03-16T00:34:42.818Z,9.79
2023-03-16T00:37:09.603Z,9.77
2023-03-16T00:39:36.222Z,9.72
2023-03-16T00:42:03.194Z,9.69
2023-03-16T00:44:32.921Z,9.69
2023-03-16T00:47:01.876Z,9.69
2023-03-16T00:49:31.654Z,9.66
2023-03-16T00:51:58.586Z,9.61
2023-03-16T00:54:27.046Z,9.57
2023-03-16T00:56:53.910Z,9.56
2023-03-16T00:59:21.630Z,9.54
2023-03-16T01:01:48.375Z,9.53
2023-03-16T01:04:14.883Z,9.51
2023-03-16T01:06:41.933Z,9.48
2023-03-16T01:09:09.729Z,9.44
2023-03-16T01:11:36.465Z,9.42
2023-03-16T01:14:03.854Z,9.38
2023-03-16T01:16:30.443Z,9.35
2023-03-16T01:18:57.692Z,9.35
2023-03-16T01:21:24.232Z,9.37
2023-03-16T01:23:50.841Z,9.33
2023-03-16T01:26:18.661Z,9.29
2023-03-16T01:28:45.242Z,9.27
2023-03-16T01:31:14.447Z,9.23
2023-03-16T01:33:42.060Z,9.22
2023-03-16T01:36:11.565Z,9.19
2023-03-16T01:38:38.171Z,9.18
2023-03-16T01:41:05.022Z,9.11
2023-03-16T01:43:33.390Z,9.05
2023-03-16T01:46:18.467Z,9.03
2023-03-16T01:48:47.899Z,9.00
2023-03-16T01:51:35.899Z,8.95
2023-03-16T01:54:07.199Z,8.91
2023-03-16T01:56:38.485Z,8.92
2023-03-16T01:59:09.792Z,8.94
2023-03-16T02:01:36.415Z,8.98
2023-03-16T02:04:14.629Z,9.02
2023-03-16T02:06:41.459Z,9.04
2023-03-16T02:09:08.426Z,9.05
2023-03-16T02:11:35.045Z,9.03
2023-03-16T02:14:07.387Z,9.02
2023-03-16T02:16:33.975Z,9.03
2023-03-16T02:19:01.035Z,9.04
2023-03-16T02:21:56.143Z,9.03
2023-03-16T02:24:22.860Z,8.98
2023-03-16T02:26:53.756Z,8.97
2023-03-16T02:29:56.364Z,8.94
2023-03-16T02:32:23.541Z,8.88
2023-03-16T02:34:50.198Z,8.81
2023-03-16T02:37:16.797Z,8.71
2023-03-16T02:39:44.062Z,8.63
2023-03-16T02:42:16.215Z,8.58
2023-03-16T02:44:43.794Z,8.53
2023-03-16T02:47:15.569Z,8.54
2023-03-16T02:49:44.926Z,8.48
2023-03-16T02:52:12.449Z,8.41
2023-03-16T02:54:39.118Z,8.38
2023-03-16T02:57:05.716Z,8.36
2023-03-16T02:59:32.280Z,8.36
2023-03-16T03:01:58.871Z,8.37
2023-03-16T03:04:25.585Z,8.40
2023-03-16T03:06:52.336Z,8.43
2023-03-16T03:09:19.602Z,8.47
2023-03-16T03:11:46.904Z,8.51
2023-03-16T03:14:16.653Z,8.56
2023-03-16T03:16:47.543Z,8.60
2023-03-16T03:19:14.119Z,8.61
2023-03-16T03:21:41.335Z,8.62
2023-03-16T03:24:08.718Z,8.63
2023-03-16T03:26:35.323Z,8.62
2023-03-16T03:29:02.429Z,8.57
2023-03-16T03:31:28.998Z,8.51
2023-03-16T03:33:55.631Z,8.42
2023-03-16T03:36:22.304Z,8.31
2023-03-16T03:38:49.741Z,8.24
2023-03-16T03:41:16.342Z,8.18
2023-03-16T03:43:44.377Z,8.14
2023-03-16T03:46:11.080Z,8.13
2023-03-16T03:48:37.795Z,8.07
2023-03-16T03:51:05.574Z,8.02
2023-03-16T03:53:32.800Z,8.02
2023-03-16T03:55:59.292Z,8.00
2023-03-16T03:58:25.879Z,7.98
2023-03-16T04:00:52.567Z,7.96
2023-03-16T04:03:19.265Z,7.95
2023-03-16T04:05:45.876Z,7.93
2023-03-16T04:08:12.497Z,7.96
2023-03-16T04:10:41.117Z,7.97
2023-03-16T04:13:07.642Z,7.97
2023-03-16T04:15:35.234Z,7.97
2023-03-16T04:18:02.013Z,7.93
2023-03-16T04:20:29.849Z,7.90
2023-03-16T04:22:58.771Z,7.85
2023-03-16T04:25:26.931Z,7.82
2023-03-16T04:27:53.653Z,7.78
2023-03-16T04:30:23.486Z,7.75
2023-03-16T04:32:50.079Z,7.74
2023-03-16T04:35:17.669Z,7.74
2023-03-16T04:37:44.283Z,7.71
2023-03-16T04:40:17.464Z,7.68
2023-03-16T04:42:45.131Z,7.67
2023-03-16T04:45:12.513Z,7.66
2023-03-16T04:47:39.306Z,7.64
2023-03-16T04:50:06.698Z,7.64
2023-03-16T04:52:33.341Z,7.62
2023-03-16T04:55:00.707Z,7.60
2023-03-16T04:57:27.294Z,7.60
2023-03-16T04:59:53.880Z,7.61
2023-03-16T05:02:20.764Z,7.61
2023-03-16T05:04:48.412Z,7.60
2023-03-16T05:07:14.972Z,7.56
2023-03-16T05:09:41.937Z,7.53
2023-03-16T05:12:09.099Z,7.55
2023-03-16T05:14:36.441Z,7.55
2023-03-16T05:17:04.750Z,7.56
2023-03-16T05:19:31.276Z,7.58
2023-03-16T05:21:58.563Z,7.59
2023-03-16T05:24:25.251Z,7.57
2023-03-16T05:26:52.248Z,7.56
2023-03-16T05:29:18.932Z,7.57
2023-03-16T05:31:47.626Z,7.56
2023-03-16T05:34:14.363Z,7.55
2023-03-16T05:36:42.319Z,7.52
2023-03-16T05:39:08.928Z,7.51
2023-03-16T05:41:35.792Z,7.51
2023-03-16T05:44:04.400Z,7.53
2023-03-16T05:46:31.201Z,7.53
2023-03-16T05:48:57.779Z,7.44
2023-03-16T05:51:26.399Z,7.29
2023-03-16T05:53:56.736Z,7.20
2023-03-16T05:56:27.668Z,7.18
2023-03-16T05:58:55.203Z,7.19
2023-03-16T06:01:22.280Z,7.16
2023-03-16T06:03:49.966Z,7.18
2023-03-16T06:06:17.337Z,7.21
2023-03-16T06:08:43.924Z,7.24
2023-03-16T06:11:11.540Z,7.28
2023-03-16T06:13:39.274Z,7.35
2023-03-16T06:16:13.771Z,7.45
2023-03-16T06:18:42.419Z,7.57
2023-03-16T06:21:09.044Z,7.68
2023-03-16T06:23:35.659Z,7.75
2023-03-16T06:26:02.483Z,7.81
2023-03-16T06:28:29.084Z,7.88
2023-03-16T06:30:56.984Z,7.95
2023-03-16T06:33:24.127Z,8.00
2023-03-16T06:35:51.538Z,8.05
2023-03-16T06:38:19.115Z,8.10
2023-03-16T06:40:45.986Z,8.14
2023-03-16T06:43:12.671Z,8.21
2023-03-16T06:45:39.433Z,8.29
2023-03-16T06:48:07.085Z,8.35
2023-03-16T06:50:33.677Z,8.40
2023-03-16T06:53:00.154Z,8.46
2023-03-16T06:55:26.734Z,8.54
2023-03-16T06:57:53.280Z,8.60
2023-03-16T07:00:20.145Z,8.64
2023-03-16T07:02:46.686Z,8.68
2023-03-16T07:05:13.570Z,8.73
2023-03-16T07:07:42.932Z,8.79
2023-03-16T07:10:14.140Z,8.86
2023-03-16T07:12:42.435Z,8.94
2023-03-16T07:15:10.130Z,9.01
2023-03-16T07:17:36.718Z,9.11
2023-03-16T07:20:05.782Z,9.22
2023-03-16T07:22:32.724Z,9.31
2023-03-16T07:24:59.227Z,9.37
2023-03-16T07:27:25.803Z,9.49
2023-03-16T07:29:52.461Z,9.63
2023-03-16T07:32:19.324Z,9.77
2023-03-16T07:34:45.823Z,9.88
2023-03-16T07:37:12.462Z,9.99
2023-03-16T07:39:39.117Z,10.11
2023-03-16T07:42:05.868Z,10.22
2023-03-16T07:44:32.483Z,10.35
2023-03-16T07:46:59.307Z,10.47
2023-03-16T07:49:25.905Z,10.59
2023-03-16T07:51:52.408Z,10.73
2023-03-16T07:54:19.102Z,10.90
2023-03-16T07:56:49.238Z,11.02
2023-03-16T07:59:20.444Z,11.14
2023-03-16T08:01:47.691Z,11.26
2023-03-16T08:04:15.078Z,11.41
2023-03-16T08:06:42.421Z,11.57
2023-03-16T08:09:09.078Z,11.72
2023-03-16T08:11:35.679Z,11.87
2023-03-16T08:14:02.341Z,12.02
2023-03-16T08:16:28.976Z,12.16
2023-03-16T08:18:59.764Z,12.33
2023-03-16T08:21:26.306Z,12.43
2023-03-16T08:23:52.762Z,12.55
2023-03-16T08:26:23.354Z,12.68
2023-03-16T08:28:52.081Z,12.74
2023-03-16T08:31:20.686Z,12.79
2023-03-16T08:33:48.107Z,12.87
2023-03-16T08:36:17.041Z,12.96
2023-03-16T08:38:53.494Z,12.99
2023-03-16T08:41:31.615Z,13.01
2023-03-16T08:43:58.856Z,12.99
2023-03-16T08:46:25.500Z,13.05
2023-03-16T08:48:52.571Z,13.07
2023-03-16T08:51:19.483Z,13.05
2023-03-16T08:53:46.994Z,13.04
2023-03-16T08:56:14.837Z,13.02
2023-03-16T08:58:45.374Z,13.04
2023-03-16T09:01:17.586Z,13.09
2023-03-16T09:03:46.390Z,13.12
2023-03-16T09:06:15.713Z,13.18
2023-03-16T09:08:44.353Z,13.22
2023-03-16T09:11:16.099Z,13.22
2023-03-16T09:13:44.776Z,13.23
2023-03-16T09:16:12.537Z,13.28
2023-03-16T09:18:40.006Z,13.35
2023-03-16T09:21:08.201Z,13.43
2023-03-16T09:23:35.067Z,13.49
2023-03-16T09:26:05.499Z,13.54
2023-03-16T09:28:32.832Z,13.63
2023-03-16T09:30:59.403Z,13.71
2023-03-16T09:33:28.681Z,13.73
2023-03-16T09:35:57.537Z,13.76
2023-03-16T09:38:26.484Z,13.76
2023-03-16T09:41:10.756Z,13.76
2023-03-16T09:43:46.076Z,13.75
2023-03-16T09:46:29.517Z,13.79
2023-03-16T09:48:57.944Z,13.85
2023-03-16T09:51:38.732Z,13.92
2023-03-16T09:54:29.803Z,13.98
2023-03-16T09:56:57.381Z,14.05
2023-03-16T09:59:24.901Z,14.05
2023-03-16T10:02:15.977Z,14.01
2023-03-16T10:05:02.576Z,13.99
2023-03-16T10:07:38.755Z,14.02
2023-03-16T10:10:20.158Z,14.10
2023-03-16T10:12:51.576Z,14.21
2023-03-16T10:15:21.084Z,14.30
2023-03-16T10:18:03.669Z,14.45
2023-03-16T10:20:33.993Z,14.56
2023-03-16T10:23:02.228Z,14.63
2023-03-16T10:25:39.358Z,14.70
2023-03-16T10:28:05.970Z,14.72
2023-03-16T10:30:34.999Z,14.79
2023-03-16T10:33:33.628Z,14.88
2023-03-16T10:36:03.848Z,14.97
2023-03-16T10:39:05.096Z,15.06
2023-03-16T10:41:34.895Z,15.15
2023-03-16T10:44:12.233Z,15.25
2023-03-16T10:46:50.962Z,15.32
2023-03-16T10:49:36.075Z,15.39
2023-03-16T10:52:13.106Z,15.44
2023-03-16T10:54:40.720Z,15.49
2023-03-16T10:57:34.687Z,15.55
2023-03-16T11:00:20.524Z,15.57
2023-03-16T11:02:51.705Z,15.63
2023-03-16T11:05:34.103Z,15.68
2023-03-16T11:08:10.815Z,15.69
2023-03-16T11:10:49.485Z,15.71
2023-03-16T11:13:22.700Z,15.73
2023-03-16T11:15:57.439Z,15.76
2023-03-16T11:18:33.165Z,15.78
2023-03-16T11:21:05.482Z,15.80
2023-03-16T11:23:34.403Z,15.85
2023-03-16T11:26:04.893Z,15.91
2023-03-16T11:28:38.769Z,15.91
2023-03-16T11:31:14.713Z,15.92
2023-03-16T11:33:41.335Z,15.97
2023-03-16T11:36:21.776Z,16.03
2023-03-16T11:39:14.167Z,16.08
2023-03-16T11:41:40.740Z,16.11
2023-03-16T11:44:10.178Z,16.11
2023-03-16T11:46:41.999Z,16.09
2023-03-16T11:49:11.176Z,16.09
2023-03-16T11:52:03.713Z,16.10
2023-03-16T11:54:39.454Z,16.06
2023-03-16T11:57:21.081Z,16.05
2023-03-16T12:00:09.022Z,16.03
2023-03-16T12:02:42.176Z,16.03
2023-03-16T12:05:27.683Z,16.00
2023-03-16T12:08:07.996Z,15.99
2023-03-16T12:10:56.375Z,15.97
2023-03-16T12:13:52.517Z,15.89
2023-03-16T12:16:33.116Z,15.85
2023-03-16T12:19:11.803Z,15.85
2023-03-16T12:21:41.171Z,15.85
2023-03-16T12:24:16.007Z,15.87
2023-03-16T12:26:43.200Z,15.85
2023-03-16T12:29:41.717Z,15.84
2023-03-16T12:32:27.317Z,15.82
2023-03-16T12:35:22.180Z,15.82
2023-03-16T12:38:05.936Z,15.80
2023-03-16T12:40:34.649Z,15.79
2023-03-16T12:43:10.796Z,15.81
2023-03-16T12:45:46.238Z,15.86
2023-03-16T12:48:43.298Z,15.93
2023-03-16T12:51:10.086Z,15.94
2023-03-16T12:53:53.889Z,15.96
2023-03-16T12:56:34.804Z,15.94
2023-03-16T12:59:06.038Z,15.91
2023-03-16T13:01:42.551Z,15.89
2023-03-16T13:04:13.336Z,15.91
2023-03-16T13:06:44.176Z,15.93
2023-03-16T13:09:12.238Z,15.95
2023-03-16T13:11:50.225Z,15.96
2023-03-16T13:14:44.237Z,15.92
2023-03-16T13:17:17.092Z,15.92
2023-03-16T13:19:46.643Z,15.90
2023-03-16T13:22:22.422Z,15.89
2023-03-16T13:25:00.251Z,15.87
2023-03-16T13:27:30.343Z,15.86
2023-03-16T13:30:13.131Z,15.83
2023-03-16T13:32:40.044Z,15.85
2023-03-16T13:35:09.933Z,15.85
2023-03-16T13:37:38.515Z,15.85
2023-03-16T13:40:20.375Z,15.81
2023-03-16T13:42:49.655Z,15.75
2023-03-16T13:45:21.291Z,15.72
2023-03-16T13:47:48.318Z,15.71
2023-03-16T13:50:16.201Z,15.73
2023-03-16T13:52:46.109Z,15.73
2023-03-16T13:55:23.731Z,15.72
2023-03-16T13:57:50.348Z,15.72
2023-03-16T14:00:25.423Z,15.71
2023-03-16T14:02:55.134Z,15.72
2023-03-16T14:05:33.514Z,15.72
2023-03-16T14:08:04.901Z,15.74
2023-03-16T14:10:34.650Z,15.74
2023-03-16T14:13:10.351Z,15.72
2023-03-16T14:15:38.572Z,15.74
2023-03-16T14:18:21.400Z,15.75
2023-03-16T14:20:52.063Z,15.74
2023-03-16T14:23:22.118Z,15.71
2023-03-16T14:25:49.403Z,15.68
2023-03-16T14:28:17.756Z,15.64
2023-03-16T14:30:53.089Z,15.59
2023-03-16T14:33:30.024Z,15.54
2023-03-16T14:35:58.946Z,15.49
2023-03-16T14:38:35.416Z,15.45
2023-03-16T14:41:30.658Z,15.42
2023-03-16T14:44:01.367Z,15.40
2023-03-16T14:46:30.894Z,15.40
2023-03-16T14:49:22.898Z,15.39
2023-03-16T14:51:51.367Z,15.35
2023-03-16T14:54:21.748Z,15.31
2023-03-16T14:56:54.391Z,15.30
2023-03-16T14:59:21.688Z,15.29
2023-03-16T15:01:49.658Z,15.26
2023-03-16T15:04:19.688Z,15.25
2023-03-16T15:06:47.399Z,15.21
2023-03-16T15:09:34.430Z,15.18
2023-03-16T15:12:01.104Z,15.13
2023-03-16T15:14:46.334Z,15.12
2023-03-16T15:17:13.212Z,15.08
2023-03-16T15:19:39.830Z,15.07
2023-03-16T15:22:07.126Z,15.05
2023-03-16T15:24:33.830Z,15.03
2023-03-16T15:27:01.194Z,15.01
2023-03-16T15:29:28.032Z,15.02
2023-03-16T15:31:56.155Z,14.99
2023-03-16T15:34:22.784Z,14.96
2023-03-16T15:36:49.584Z,14.94
2023-03-16T15:39:25.035Z,14.94
2023-03-16T15:41:51.901Z,14.95
2023-03-16T15:44:18.471Z,14.94
2023-03-16T15:46:45.107Z,14.93
2023-03-16T15:49:11.708Z,14.93
2023-03-16T15:51:38.329Z,14.94
2023-03-16T15:54:08.656Z,14.93
2023-03-16T15:56:52.702Z,14.93
2023-03-16T15:59:22.250Z,14.92
2023-03-16T16:01:49.619Z,14.90
2023-03-16T16:04:23.624Z,14.91
2023-03-16T16:06:54.469Z,14.92
2023-03-16T16:09:21.934Z,14.92
2023-03-16T16:11:50.540Z,14.88
2023-03-16T16:14:21.316Z,14.89
2023-03-16T16:16:48.067Z,14.89
2023-03-16T16:19:15.680Z,14.92
2023-03-16T16:21:42.741Z,14.90
2023-03-16T16:24:10.704Z,14.89
2023-03-16T16:26:50.929Z,14.89
2023-03-16T16:29:23.376Z,14.87
2023-03-16T16:31:53.585Z,14.86
2023-03-16T16:34:24.393Z,14.86
2023-03-16T16:36:51.375Z,14.82
2023-03-16T16:39:17.889Z,14.79
2023-03-16T16:41:46.164Z,14.76
2023-03-16T16:44:21.475Z,14.72
2023-03-16T16:46:50.272Z,14.68
2023-03-16T16:49:23.909Z,14.65
2023-03-16T16:51:52.716Z,14.62
2023-03-16T16:54:24.303Z,14.59
2023-03-16T16:56:54.684Z,14.57
2023-03-16T16:59:24.342Z,14.55
2023-03-16T17:01:53.881Z,14.52
2023-03-16T17:04:25.628Z,14.48
2023-03-16T17:06:55.513Z,14.45
2023-03-16T17:09:23.312Z,14.43
2023-03-16T17:11:51.148Z,14.37
2023-03-16T17:14:20.236Z,14.33
2023-03-16T17:16:48.534Z,14.30
2023-03-16T17:19:21.700Z,14.28
2023-03-16T17:21:51.034Z,14.25
2023-03-16T17:24:17.746Z,14.20
2023-03-16T17:26:47.807Z,14.14
2023-03-16T17:29:18.488Z,14.07
2023-03-16T17:31:45.096Z,14.02
2023-03-16T17:34:16.767Z,13.97
2023-03-16T17:36:43.938Z,13.94
2023-03-16T17:39:21.571Z,13.91
2023-03-16T17:41:55.423Z,13.87
2023-03-16T17:44:24.687Z,13.83
2023-03-16T17:46:51.458Z,13.78
2023-03-16T17:49:20.287Z,13.76
2023-03-16T17:51:47.871Z,13.73
2023-03-16T17:54:14.478Z,13.74
2023-03-16T17:56:41.757Z,13.75
2023-03-16T17:59:15.523Z,13.76
2023-03-16T18:01:43.222Z,13.75
2023-03-16T18:04:17.956Z,13.76
2023-03-16T18:06:47.098Z,13.73
2023-03-16T18:09:15.177Z,13.70
2023-03-16T18:11:46.652Z,13.66
2023-03-16T18:14:35.590Z,13.60
2023-03-16T18:17:03.897Z,13.56
2023-03-16T18:19:32.020Z,13.52
2023-03-16T18:21:58.894Z,13.47
2023-03-16T18:24:29.054Z,13.45
2023-03-16T18:26:56.113Z,13.44
2023-03-16T18:29:22.902Z,13.45
2023-03-16T18:31:50.164Z,13.44
2023-03-16T18:34:21.764Z,13.45
2023-03-16T18:36:48.322Z,13.44
2023-03-16T18:39:19.060Z,13.42
2023-03-16T18:41:46.967Z,13.40
2023-03-16T18:44:18.483Z,13.37
2023-03-16T18:46:46.322Z,13.31
2023-03-16T18:49:26.610Z,13.23
2023-03-16T18:51:54.594Z,13.15
2023-03-16T18:54:26.639Z,13.05
2023-03-16T18:56:53.968Z,12.96
2023-03-16T18:59:20.909Z,12.89
2023-03-16T19:01:48.099Z,12.83
2023-03-16T19:04:24.325Z,12.76
2023-03-16T19:06:53.644Z,12.70
2023-03-16T19:09:31.108Z,12.66
2023-03-16T19:11:59.429Z,12.58
2023-03-16T19:14:36.880Z,12.52
2023-03-16T19:17:03.611Z,12.45
2023-03-16T19:19:30.202Z,12.43
2023-03-16T19:22:00.923Z,12.39
2023-03-16T19:24:35.127Z,12.31
2023-03-16T19:27:02.016Z,12.24
2023-03-16T19:29:34.517Z,12.18
2023-03-16T19:32:01.814Z,12.15
2023-03-16T19:34:29.735Z,12.12
2023-03-16T19:36:56.443Z,12.08
2023-03-16T19:39:23.253Z,12.04
2023-03-16T19:41:56.432Z,12.01
2023-03-16T19:44:25.403Z,12.00
2023-03-16T19:46:52.358Z,11.95
2023-03-16T19:49:23.677Z,11.88
2023-03-16T19:51:52.116Z,11.82
2023-03-16T19:54:25.354Z,11.72
2023-03-16T19:56:52.998Z,11.66
2023-03-16T19:59:20.296Z,11.59
2023-03-16T20:01:47.603Z,11.54
2023-03-16T20:04:23.207Z,11.54
2023-03-16T20:06:50.985Z,11.50
2023-03-16T20:09:28.537Z,11.44
2023-03-16T20:11:55.105Z,11.41
2023-03-16T20:14:29.710Z,11.41
2023-03-16T20:16:58.101Z,11.39
2023-03-16T20:19:24.703Z,11.37
2023-03-16T20:21:51.398Z,11.35
2023-03-16T20:24:20.781Z,11.28
2023-03-16T20:26:49.016Z,11.25
2023-03-16T20:29:29.178Z,11.21
2023-03-16T20:31:56.620Z,11.18
2023-03-16T20:34:31.648Z,11.16
2023-03-16T20:36:58.379Z,11.10
2023-03-16T20:39:25.190Z,11.07
2023-03-16T20:41:52.138Z,11.03
2023-03-16T20:44:20.106Z,10.97
2023-03-16T20:46:48.298Z,10.92
2023-03-16T20:49:35.261Z,10.88
2023-03-16T20:52:01.872Z,10.85
2023-03-16T20:54:28.446Z,10.80
2023-03-16T20:56:55.208Z,10.79
2023-03-16T20:59:24.809Z,10.75
2023-03-16T21:01:54.570Z,10.72
2023-03-16T21:04:27.350Z,10.67
2023-03-16T21:06:54.303Z,10.64
2023-03-16T21:09:21.324Z,10.62
2023-03-16T21:11:48.660Z,10.61
2023-03-16T21:14:18.447Z,10.57
2023-03-16T21:16:45.275Z,10.50
2023-03-16T21:19:17.990Z,10.46
2023-03-16T21:21:44.808Z,10.45
2023-03-16T21:24:11.781Z,10.44
2023-03-16T21:26:41.099Z,10.44
2023-03-16T21:29:13.486Z,10.45
2023-03-16T21:31:40.288Z,10.43
2023-03-16T21:34:24.440Z,10.42
2023-03-16T21:36:51.178Z,10.41
2023-03-16T21:39:20.463Z,10.40
2023-03-16T21:41:49.916Z,10.40
2023-03-16T21:44:16.785Z,10.38
2023-03-16T21:46:46.494Z,10.39
2023-03-16T21:49:13.334Z,10.36
2023-03-16T21:51:40.183Z,10.31
2023-03-16T21:54:08.019Z,10.27
2023-03-16T21:56:36.218Z,10.23
2023-03-16T21:59:02.770Z,10.19
2023-03-16T22:01:31.522Z,10.19
2023-03-16T22:04:02.991Z,10.15
2023-03-16T22:06:29.884Z,10.10
2023-03-16T22:08:58.692Z,10.09
2023-03-16T22:11:29.406Z,10.07
2023-03-16T22:13:58.891Z,10.04
2023-03-16T22:16:27.944Z,9.99
2023-03-16T22:18:56.984Z,9.89
2023-03-16T22:21:40.994Z,9.83
2023-03-16T22:24:35.856Z,9.82
2023-03-16T22:27:02.490Z,9.84
2023-03-16T22:29:31.289Z,9.85
2023-03-16T22:32:03.511Z,9.87
2023-03-16T22:34:45.353Z,9.81
2023-03-16T22:37:21.088Z,9.77
2023-03-16T22:39:48.343Z,9.76
2023-03-16T22:42:37.280Z,9.73
2023-03-16T22:45:14.339Z,9.71
2023-03-16T22:47:40.940Z,9.72
2023-03-16T22:50:09.343Z,9.71
2023-03-16T22:52:36.781Z,9.69
2023-03-16T22:55:04.990Z,9.68
2023-03-16T22:57:31.582Z,9.70
2023-03-16T22:59:59.057Z,9.68
2023-03-16T23:02:26.797Z,9.67
2023-03-16T23:04:53.333Z,9.59
2023-03-16T23:07:20.190Z,9.49
2023-03-16T23:09:48.514Z,9.42
2023-03-16T23:12:18.167Z,9.40
2023-03-16T23:14:44.893Z,9.40
2023-03-16T23:17:19.583Z,9.40
2023-03-16T23:19:47.967Z,9.39
2023-03-16T23:22:15.179Z,9.39
2023-03-16T23:24:42.608Z,9.38
2023-03-16T23:27:17.624Z,9.32
2023-03-16T23:29:52.919Z,9.29
2023-03-16T23:32:19.434Z,9.27
2023-03-16T23:34:46.122Z,9.25
2023-03-16T23:37:12.739Z,9.23
2023-03-16T23:39:40.008Z,9.22
2023-03-16T23:42:07.580Z,9.20
2023-03-16T23:44:34.133Z,9.14
2023-03-16T23:47:00.905Z,9.14
2023-03-16T23:49:32.730Z,9.11
2023-03-16T23:51:59.504Z,9.08
2023-03-16T23:54:28.820Z,9.08
2023-03-16T23:56:55.630Z,9.07
2023-03-16T23:59:23.561Z,9.04
